Weather at Rabil Airport

Public forecast

Using degrees Celsius for public forecast. Weather courtesy of forecast.io.

Current aviation weather report (METAR) for Rabil Airport

Report is more than 6 hours old.

2023/02/04 19:00 (retrieved 9 hours ago)

GVBA 041900Z 04014KT 9000 NSC 23/15 Q1016 NOSIG

Closest aviation forecast (TAF) to Rabil Airport

Forecast is more than 12 hours old.

Closest forecast is Conakry International Airport, 670.5 nm (1,241.8 km) SE.

2023/02/04 12:00 (retrieved 16 hours ago)

TAF GUCY 041100Z 0412/0518 30006KT 5000 HZ NSC TEMPO 0414/0419 24008KT CAVOK BECMG 0505/0509 VRB02KT 3000 BR FEW015 SCT110